Time,TemperatureF,DewpointF,PressureIn,WindDirection,WindDirectionDegrees,WindSpeedMPH,WindSpeedGustMPH,Humidity,HourlyPrecipIn,Conditions,Clouds,dailyrainin,SoftwareType,DateUTC
2013-03-01 00:02:00,25.3,23.0,29.94,WSW,238,1.7,9.1,91,0.00,,OVC,0.00,VWS V14.00,2013-03-01 05:02:00,
2013-03-01 00:30:00,33.1,32.2,29.74,NNE,27,2.1,2.1,96,0.00,,OVC,0.00,VWS V14.00,2013-03-01 05:30:00,
2013-03-01 00:34:00,33.1,32.2,29.74,NNE,27,2.1,2.1,96,0.00,,OVC,0.00,VWS V14.00,2013-03-01 05:34:00,
2013-03-01 00:35:00,33.1,32.2,29.74,NNE,27,2.1,2.1,96,0.00,,OVC,0.00,VWS V14.00,2013-03-01 05:35:00,
2013-03-01 00:40:00,33.1,32.2,29.74,NNE,27,2.1,2.1,96,0.00,,OVC,0.00,VWS V14.00,2013-03-01 05:40:00,
2013-03-01 03:00:00,32.1,31.3,29.76,NNW,332,0.0,2.1,97,0.00,,OVC,0.00,VWS V14.00,2013-03-01 08:00:00,
2013-03-01 03:04:00,32.1,31.3,29.76,NNW,332,0.0,2.1,97,0.00,,OVC,0.00,VWS V14.00,2013-03-01 08:04:00,
2013-03-01 03:05:00,32.1,31.3,29.76,NNW,332,0.0,2.1,97,0.00,,OVC,0.00,VWS V14.00,2013-03-01 08:05:00,
2013-03-01 03:10:00,32.1,31.3,29.76,NNW,332,0.0,2.1,97,0.00,,OVC,0.00,VWS V14.00,2013-03-01 08:10:00,
2013-03-01 05:06:00,31.7,30.9,29.79,NNW,345,0.0,2.1,97,0.00,,OVC,0.00,VWS V14.00,2013-03-01 10:06:00,
2013-03-01 05:11:00,31.6,30.8,29.79,NNW,345,0.0,2.1,97,0.00,,OVC,0.00,VWS V14.00,2013-03-01 10:11:00,
2013-03-01 05:16:00,31.6,30.8,29.79,NNW,345,0.0,2.1,97,0.00,,OVC,0.00,VWS V14.00,2013-03-01 10:16:00,
2013-03-01 06:31:00,31.5,30.7,29.80,NW,304,0.0,2.1,97,0.00,,OVC,0.00,VWS V14.00,2013-03-01 11:31:00,
2013-03-01 06:34:00,31.5,30.7,29.80,NW,304,0.0,2.1,97,0.00,,OVC,0.00,VWS V14.00,2013-03-01 11:34:00,
2013-03-01 06:36:00,31.5,30.7,29.80,NW,304,0.0,2.1,97,0.00,,OVC,0.00,VWS V14.00,2013-03-01 11:36:00,
2013-03-01 06:41:00,31.5,30.7,29.80,NW,304,0.0,2.1,97,0.00,,OVC,0.00,VWS V14.00,2013-03-01 11:41:00,
2013-03-01 06:56:00,31.7,30.9,29.81,NW,304,0.0,2.1,97,0.00,,OVC,0.00,VWS V14.00,2013-03-01 11:56:00,
2013-03-01 07:01:00,31.7,30.9,29.81,NW,304,0.0,2.1,97,0.00,,OVC,0.00,VWS V14.00,2013-03-01 12:01:00,
2013-03-01 07:04:00,31.7,30.9,29.81,NW,304,0.0,2.1,97,0.00,,OVC,0.00,VWS V14.00,2013-03-01 12:04:00,
2013-03-01 07:06:00,31.7,30.9,29.81,NW,304,0.0,2.1,97,0.00,,OVC,0.00,VWS V14.00,2013-03-01 12:06:00,
2013-03-01 07:11:00,31.7,30.9,29.81,NW,304,0.0,2.1,97,0.00,,OVC,0.00,VWS V14.00,2013-03-01 12:11:00,
2013-03-01 09:16:00,31.4,30.0,29.83,North,1,1.5,10.3,94,0.00,,OVC,0.00,VWS V14.00,2013-03-01 14:16:00,
2013-03-01 09:21:00,31.5,30.0,29.83,WSW,250,4.9,10.3,94,0.00,,OVC,0.00,VWS V14.00,2013-03-01 14:21:00,
2013-03-01 09:26:00,31.5,29.7,29.83,North,350,5.8,5.8,93,0.00,,OVC,0.00,VWS V14.00,2013-03-01 14:26:00,
2013-03-01 09:30:00,31.5,29.7,29.83,NNW,332,5.3,10.3,93,0.00,,SCT,0.00,VWS V14.00,2013-03-01 14:30:00,
2013-03-01 09:31:00,31.6,29.6,29.83,West,281,2.9,10.4,92,0.00,,OVC,0.00,VWS V14.00,2013-03-01 14:31:00,
2013-03-01 09:36:00,31.6,29.5,29.83,NNW,330,3.2,10.4,92,0.00,,OVC,0.00,VWS V14.00,2013-03-01 14:36:00,
2013-03-01 09:41:00,31.9,29.9,29.83,NW,316,5.7,10.4,92,0.00,,OVC,0.00,VWS V14.00,2013-03-01 14:41:00,
2013-03-01 09:46:00,31.9,29.4,29.84,WNW,298,6.0,13.8,90,0.00,,OVC,0.00,VWS V14.00,2013-03-01 14:46:00,
2013-03-01 09:51:00,32.2,29.8,29.84,NW,325,0.6,13.8,91,0.00,,OVC,0.00,VWS V14.00,2013-03-01 14:51:00,
2013-03-01 09:56:00,32.2,29.6,29.84,NW,308,4.8,5.8,90,0.00,,OVC,0.00,VWS V14.00,2013-03-01 14:56:00,
2013-03-01 10:00:00,32.2,29.6,29.84,North,359,3.5,13.8,90,0.00,,SCT,0.00,VWS V14.00,2013-03-01 15:00:00,
2013-03-01 10:01:00,32.2,29.4,29.84,North,353,4.4,9.4,89,0.00,,OVC,0.00,VWS V14.00,2013-03-01 15:01:00,
2013-03-01 10:06:00,32.1,29.1,29.84,NNW,329,6.3,9.4,89,0.00,,OVC,0.00,VWS V14.00,2013-03-01 15:06:00,
2013-03-01 10:11:00,32.4,29.4,29.84,NW,305,2.2,9.4,89,0.00,,OVC,0.00,VWS V14.00,2013-03-01 15:11:00,
2013-03-01 10:16:00,32.5,29.1,29.84,NW,315,5.2,12.2,87,0.00,,OVC,0.00,VWS V14.00,2013-03-01 15:16:00,
2013-03-01 10:21:00,32.5,29.0,29.84,NNW,329,6.0,12.2,87,0.00,,OVC,0.00,VWS V14.00,2013-03-01 15:21:00,
2013-03-01 10:26:00,32.8,29.4,29.84,North,1,2.7,3.0,87,0.00,,OVC,0.00,VWS V14.00,2013-03-01 15:26:00,
2013-03-01 10:30:00,32.7,29.2,29.84,NNW,330,1.7,12.2,87,0.00,,SCT,0.00,VWS V14.00,2013-03-01 15:30:00,
2013-03-01 10:31:00,32.9,29.0,29.84,North,359,3.2,8.9,86,0.01,,OVC,0.01,VWS V14.00,2013-03-01 15:31:00,
2013-03-01 10:36:00,32.7,28.8,29.84,WNW,294,4.9,12.6,85,0.01,,OVC,0.01,VWS V14.00,2013-03-01 15:36:00,
2013-03-01 10:41:00,32.9,28.9,29.84,NNW,332,3.9,12.6,85,0.01,,OVC,0.01,VWS V14.00,2013-03-01 15:41:00,
2013-03-01 10:46:00,32.9,28.7,29.84,NW,326,4.5,12.6,84,0.02,,OVC,0.02,VWS V14.00,2013-03-01 15:46:00,
2013-03-01 10:51:00,32.8,28.1,29.84,NW,314,7.8,12.6,83,0.02,,OVC,0.02,VWS V14.00,2013-03-01 15:51:00,
2013-03-01 10:56:00,33.1,28.8,29.84,NW,321,0.0,2.5,84,0.01,,OVC,0.02,VWS V14.00,2013-03-01 15:56:00,
2013-03-01 11:00:00,33.2,28.8,29.84,NNW,346,2.5,12.6,84,0.01,,SCT,0.02,VWS V14.00,2013-03-01 16:00:00,
2013-03-01 11:01:00,32.8,29.0,29.84,WNW,288,10.7,13.9,86,0.01,,OVC,0.02,VWS V14.00,2013-03-01 16:01:00,
2013-03-01 11:06:00,32.3,28.9,29.84,NW,307,11.2,13.9,87,0.01,,OVC,0.02,VWS V14.00,2013-03-01 16:06:00,
2013-03-01 11:11:00,32.3,28.9,29.84,NNE,17,4.0,13.9,87,0.01,,OVC,0.02,VWS V14.00,2013-03-01 16:11:00,
2013-03-01 11:16:00,32.3,28.7,29.84,NW,314,3.2,13.9,86,0.01,,OVC,0.02,VWS V14.00,2013-03-01 16:16:00,
2013-03-01 11:21:00,32.4,28.7,29.84,NW,315,4.5,14.2,86,0.01,,OVC,0.02,VWS V14.00,2013-03-01 16:21:00,
2013-03-01 11:26:00,31.9,28.4,29.84,WNW,288,7.0,7.6,87,0.01,,OVC,0.02,VWS V14.00,2013-03-01 16:26:00,
2013-03-01 11:30:00,32.0,28.6,29.84,WNW,290,7.6,14.2,87,0.01,,SCT,0.02,VWS V14.00,2013-03-01 16:30:00,
2013-03-01 11:31:00,31.9,28.6,29.84,WNW,300,5.9,14.1,87,0.01,,OVC,0.03,VWS V14.00,2013-03-01 16:31:00,
2013-03-01 11:36:00,32.1,28.7,29.84,WNW,301,3.8,14.1,87,0.02,,OVC,0.03,VWS V14.00,2013-03-01 16:36:00,
2013-03-01 11:41:00,31.8,28.1,29.85,West,266,13.0,14.1,86,0.02,,OVC,0.03,VWS V14.00,2013-03-01 16:41:00,
2013-03-01 11:46:00,31.6,28.1,29.85,WNW,291,8.6,16.1,87,0.01,,OVC,0.03,VWS V14.00,2013-03-01 16:46:00,
2013-03-01 11:51:00,31.6,28.2,29.85,WNW,297,8.8,16.1,87,0.01,,OVC,0.03,VWS V14.00,2013-03-01 16:51:00,
2013-03-01 11:56:00,31.3,27.9,29.85,WNW,285,9.4,9.6,87,0.01,,OVC,0.03,VWS V14.00,2013-03-01 16:56:00,
2013-03-01 12:00:00,31.4,28.1,29.85,WNW,301,7.8,16.1,87,0.01,,SCT,0.03,VWS V14.00,2013-03-01 17:00:00,
2013-03-01 12:01:00,31.2,27.8,29.85,WNW,283,5.0,11.9,87,0.01,,OVC,0.03,VWS V14.00,2013-03-01 17:01:00,
2013-03-01 12:06:00,31.2,27.8,29.86,NW,309,5.1,11.9,87,0.01,,OVC,0.03,VWS V14.00,2013-03-01 17:06:00,
2013-03-01 12:11:00,31.3,27.5,29.86,NW,323,5.7,12.8,86,0.01,,OVC,0.03,VWS V14.00,2013-03-01 17:11:00,
2013-03-01 12:16:00,31.1,27.1,29.86,NW,319,8.7,14.3,85,0.01,,OVC,0.03,VWS V14.00,2013-03-01 17:16:00,
2013-03-01 12:21:00,30.7,26.5,29.86,NW,316,6.9,14.3,84,0.01,,OVC,0.03,VWS V14.00,2013-03-01 17:21:00,
2013-03-01 12:26:00,30.9,26.8,29.86,West,277,14.4,14.4,85,0.01,,OVC,0.03,VWS V14.00,2013-03-01 17:26:00,
2013-03-01 12:30:00,31.0,27.0,29.86,WNW,301,8.1,14.3,85,0.01,,SCT,0.03,VWS V14.00,2013-03-01 17:30:00,
2013-03-01 12:31:00,30.7,26.4,29.86,WNW,294,5.8,15.0,84,0.01,,OVC,0.03,VWS V14.00,2013-03-01 17:31:00,
2013-03-01 12:36:00,30.9,26.9,29.86,WNW,297,5.0,15.0,85,0.01,,OVC,0.03,VWS V14.00,2013-03-01 17:36:00,
2013-03-01 12:41:00,31.1,27.1,29.86,WNW,301,6.9,15.0,85,0.01,,OVC,0.03,VWS V14.00,2013-03-01 17:41:00,
2013-03-01 12:46:00,31.1,26.8,29.86,WNW,295,6.3,15.0,84,0.01,,OVC,0.03,VWS V14.00,2013-03-01 17:46:00,
2013-03-01 12:51:00,31.1,26.9,29.86,WNW,298,7.4,15.0,84,0.00,,OVC,0.03,VWS V14.00,2013-03-01 17:51:00,
2013-03-01 12:56:00,31.0,26.7,29.86,NW,308,7.3,8.2,84,0.00,,OVC,0.03,VWS V14.00,2013-03-01 17:56:00,
2013-03-01 13:00:00,31.2,26.9,29.86,NW,304,6.3,15.0,84,0.00,,SCT,0.03,VWS V14.00,2013-03-01 18:00:00,
2013-03-01 13:01:00,31.2,26.9,29.86,WNW,284,7.1,9.5,84,0.00,,OVC,0.03,VWS V14.00,2013-03-01 18:01:00,
2013-03-01 13:06:00,31.2,26.8,29.86,WNW,294,8.7,10.9,84,0.00,,OVC,0.03,VWS V14.00,2013-03-01 18:06:00,
2013-03-01 13:11:00,31.2,26.6,29.86,NW,304,7.6,13.2,83,0.00,,OVC,0.03,VWS V14.00,2013-03-01 18:11:00,
2013-03-01 13:16:00,31.0,26.4,29.86,WNW,301,7.4,13.5,83,0.00,,OVC,0.03,VWS V14.00,2013-03-01 18:16:00,
2013-03-01 13:21:00,31.1,26.8,29.86,NNW,328,3.9,13.5,84,0.00,,OVC,0.03,VWS V14.00,2013-03-01 18:21:00,
2013-03-01 13:26:00,30.9,26.2,29.86,NW,308,8.7,11.9,82,0.00,,OVC,0.03,VWS V14.00,2013-03-01 18:26:00,
2013-03-01 13:30:00,30.9,26.4,29.86,WNW,294,8.6,13.5,83,0.00,,SCT,0.03,VWS V14.00,2013-03-01 18:30:00,
2013-03-01 13:31:00,31.0,26.4,29.86,WNW,302,2.2,11.9,83,0.00,,OVC,0.03,VWS V14.00,2013-03-01 18:31:00,
2013-03-01 13:36:00,31.3,26.4,29.86,NW,304,3.9,11.9,82,0.00,,OVC,0.03,VWS V14.00,2013-03-01 18:36:00,
2013-03-01 13:41:00,31.2,26.4,29.86,NW,323,3.5,11.9,82,0.00,,OVC,0.03,VWS V14.00,2013-03-01 18:41:00,
2013-03-01 13:46:00,31.2,26.3,29.86,NW,318,6.3,11.9,82,0.00,,OVC,0.03,VWS V14.00,2013-03-01 18:46:00,
2013-03-01 13:51:00,31.0,25.5,29.87,West,277,11.2,11.9,80,0.00,,OVC,0.03,VWS V14.00,2013-03-01 18:51:00,
2013-03-01 13:56:00,30.9,25.6,29.87,NW,304,7.1,10.8,80,0.00,,OVC,0.03,VWS V14.00,2013-03-01 18:56:00,
2013-03-01 14:00:00,31.0,25.7,29.86,WNW,288,6.6,11.9,80,0.00,,SCT,0.03,VWS V14.00,2013-03-01 19:00:00,
2013-03-01 14:01:00,31.0,25.8,29.87,WNW,298,3.7,10.8,81,0.00,,OVC,0.03,VWS V14.00,2013-03-01 19:01:00,
2013-03-01 14:06:00,31.0,25.8,29.87,NW,314,4.4,10.8,81,0.00,,OVC,0.03,VWS V14.00,2013-03-01 19:06:00,
2013-03-01 14:11:00,31.1,26.0,29.87,NW,305,2.5,10.8,81,0.00,,OVC,0.03,VWS V14.00,2013-03-01 19:11:00,
2013-03-01 14:16:00,30.8,25.4,29.87,WNW,290,4.2,11.5,80,0.00,,OVC,0.03,VWS V14.00,2013-03-01 19:16:00,
2013-03-01 14:21:00,30.9,25.7,29.87,NW,305,5.6,11.5,81,0.00,,OVC,0.03,VWS V14.00,2013-03-01 19:21:00,
2013-03-01 14:26:00,30.9,25.9,29.87,NW,304,5.8,6.2,82,0.00,,OVC,0.03,VWS V14.00,2013-03-01 19:26:00,
2013-03-01 14:30:00,30.9,25.8,29.87,NW,325,3.8,11.5,81,0.00,,SCT,0.03,VWS V14.00,2013-03-01 19:30:00,
2013-03-01 14:31:00,30.7,25.9,29.87,WNW,302,3.4,14.0,82,0.00,,OVC,0.03,VWS V14.00,2013-03-01 19:31:00,
2013-03-01 14:36:00,30.3,25.2,29.87,West,278,10.1,14.4,81,0.00,,OVC,0.03,VWS V14.00,2013-03-01 19:36:00,
2013-03-01 14:41:00,30.4,25.6,29.87,WNW,284,2.8,14.9,82,0.00,,OVC,0.03,VWS V14.00,2013-03-01 19:41:00,
2013-03-01 14:46:00,30.4,25.5,29.87,North,359,2.6,14.9,82,0.00,,OVC,0.03,VWS V14.00,2013-03-01 19:46:00,
2013-03-01 14:51:00,30.3,25.4,29.87,WNW,288,10.6,14.9,82,0.00,,OVC,0.03,VWS V14.00,2013-03-01 19:51:00,
2013-03-01 14:56:00,30.2,25.5,29.87,WNW,301,7.8,10.7,82,0.00,,OVC,0.03,VWS V14.00,2013-03-01 19:56:00,
2013-03-01 15:00:00,30.3,25.5,29.87,WNW,288,5.3,14.9,82,0.00,,SCT,0.03,VWS V14.00,2013-03-01 20:00:00,
2013-03-01 15:01:00,30.3,25.5,29.87,WNW,301,6.4,10.7,82,0.00,,OVC,0.03,VWS V14.00,2013-03-01 20:01:00,
2013-03-01 15:06:00,30.4,25.6,29.88,WSW,256,7.6,10.7,82,0.00,,OVC,0.03,VWS V14.00,2013-03-01 20:06:00,
2013-03-01 15:11:00,30.1,25.2,29.88,WNW,292,6.6,13.4,82,0.00,,OVC,0.03,VWS V14.00,2013-03-01 20:11:00,
2013-03-01 15:16:00,30.0,25.1,29.88,West,276,8.0,15.2,82,0.00,,OVC,0.03,VWS V14.00,2013-03-01 20:16:00,
2013-03-01 15:21:00,30.3,25.4,29.88,NW,322,6.8,15.2,82,0.00,,OVC,0.03,VWS V14.00,2013-03-01 20:21:00,
2013-03-01 15:26:00,30.2,25.2,29.88,WNW,290,10.4,12.0,81,0.00,,OVC,0.03,VWS V14.00,2013-03-01 20:26:00,
2013-03-01 15:30:00,30.3,25.2,29.88,WNW,291,7.2,15.2,81,0.00,,SCT,0.03,VWS V14.00,2013-03-01 20:30:00,
2013-03-01 15:31:00,30.2,25.2,29.88,WNW,295,7.4,13.0,82,0.00,,OVC,0.03,VWS V14.00,2013-03-01 20:31:00,
2013-03-01 15:36:00,30.3,25.4,29.88,NW,304,7.5,13.0,82,0.00,,OVC,0.03,VWS V14.00,2013-03-01 20:36:00,
2013-03-01 15:41:00,30.4,25.5,29.88,NW,308,1.4,13.0,82,0.00,,OVC,0.03,VWS V14.00,2013-03-01 20:41:00,
2013-03-01 15:46:00,30.1,25.0,29.89,West,281,14.6,15.8,81,0.00,,OVC,0.03,VWS V14.00,2013-03-01 20:46:00,
2013-03-01 15:51:00,30.2,25.1,29.89,WNW,283,4.7,15.8,81,0.00,,OVC,0.03,VWS V14.00,2013-03-01 20:51:00,
2013-03-01 15:56:00,30.0,24.9,29.89,North,357,5.8,8.1,81,0.00,,OVC,0.03,VWS V14.00,2013-03-01 20:56:00,
2013-03-01 16:00:00,30.0,25.0,29.89,WNW,287,6.5,15.8,81,0.00,,SCT,0.03,VWS V14.00,2013-03-01 21:00:00,
2013-03-01 16:01:00,30.1,25.2,29.89,WNW,292,5.5,11.4,82,0.00,,OVC,0.03,VWS V14.00,2013-03-01 21:01:00,
2013-03-01 16:06:00,30.0,25.2,29.89,West,277,7.3,11.4,82,0.00,,OVC,0.03,VWS V14.00,2013-03-01 21:06:00,
2013-03-01 16:11:00,29.7,24.7,29.89,WNW,300,5.4,11.7,81,0.00,,OVC,0.03,VWS V14.00,2013-03-01 21:11:00,
2013-03-01 16:16:00,29.6,24.9,29.89,WNW,291,8.6,11.7,82,0.00,,OVC,0.03,VWS V14.00,2013-03-01 21:16:00,
2013-03-01 16:21:00,29.7,25.1,29.89,WNW,295,2.1,11.7,83,0.00,,OVC,0.03,VWS V14.00,2013-03-01 21:21:00,
2013-03-01 16:26:00,29.5,24.8,29.89,NW,307,5.7,6.3,82,0.00,,OVC,0.03,VWS V14.00,2013-03-01 21:26:00,
2013-03-01 16:30:00,29.7,25.0,29.90,WNW,300,4.3,11.7,82,0.00,,SCT,0.03,VWS V14.00,2013-03-01 21:30:00,
2013-03-01 16:31:00,29.6,24.9,29.90,NW,304,9.3,10.6,82,0.00,,OVC,0.03,VWS V14.00,2013-03-01 21:31:00,
2013-03-01 16:36:00,29.3,24.7,29.90,West,277,7.5,10.6,83,0.00,,OVC,0.03,VWS V14.00,2013-03-01 21:36:00,
2013-03-01 16:42:00,29.2,24.9,29.90,WNW,288,6.3,13.9,84,0.00,,OVC,0.03,VWS V14.00,2013-03-01 21:42:00,
2013-03-01 16:47:00,29.2,24.9,29.90,WNW,292,5.0,13.9,84,0.00,,OVC,0.03,VWS V14.00,2013-03-01 21:47:00,
2013-03-01 16:52:00,29.2,25.0,29.90,WNW,287,7.6,13.9,84,0.00,,OVC,0.03,VWS V14.00,2013-03-01 21:52:00,
2013-03-01 16:57:00,29.1,25.0,29.90,NW,304,5.2,7.0,84,0.00,,OVC,0.03,VWS V14.00,2013-03-01 21:57:00,
2013-03-01 17:00:00,29.0,24.9,29.90,WNW,288,6.0,13.9,84,0.00,,SCT,0.03,VWS V14.00,2013-03-01 22:00:00,
2013-03-01 17:02:00,29.2,25.2,29.90,West,263,6.5,7.6,85,0.00,,OVC,0.03,VWS V14.00,2013-03-01 22:02:00,
2013-03-01 17:07:00,29.0,25.2,29.90,West,281,3.0,8.4,86,0.00,,OVC,0.03,VWS V14.00,2013-03-01 22:07:00,
2013-03-01 17:12:00,28.8,25.1,29.90,WNW,297,5.0,8.4,86,0.00,,OVC,0.03,VWS V14.00,2013-03-01 22:12:00,
2013-03-01 17:17:00,28.7,25.1,29.90,WNW,301,6.2,10.9,86,0.00,,OVC,0.03,VWS V14.00,2013-03-01 22:17:00,
2013-03-01 17:22:00,28.8,25.3,29.90,WNW,285,6.4,10.9,87,0.00,,OVC,0.03,VWS V14.00,2013-03-01 22:22:00,
2013-03-01 17:27:00,28.8,25.5,29.91,WNW,300,4.5,6.2,87,0.00,,OVC,0.03,VWS V14.00,2013-03-01 22:27:00,
2013-03-01 17:30:00,28.9,25.5,29.91,NW,308,3.3,10.9,87,0.00,,SCT,0.03,VWS V14.00,2013-03-01 22:30:00,
2013-03-01 17:32:00,28.8,25.6,29.91,WNW,297,1.7,6.2,88,0.00,,OVC,0.03,VWS V14.00,2013-03-01 22:32:00,
2013-03-01 17:37:00,28.8,25.7,29.91,NW,305,1.9,6.2,88,0.00,,OVC,0.03,VWS V14.00,2013-03-01 22:37:00,
2013-03-01 17:42:00,28.8,25.8,29.91,WNW,298,4.3,6.2,88,0.00,,OVC,0.03,VWS V14.00,2013-03-01 22:42:00,
2013-03-01 17:47:00,28.6,25.8,29.91,WNW,287,3.2,6.8,89,0.00,,OVC,0.03,VWS V14.00,2013-03-01 22:47:00,
2013-03-01 17:52:00,28.6,25.9,29.91,WNW,301,7.3,7.3,90,0.00,,OVC,0.03,VWS V14.00,2013-03-01 22:52:00,
2013-03-01 17:57:00,28.6,26.0,29.91,WNW,302,3.2,4.7,90,0.00,,OVC,0.03,VWS V14.00,2013-03-01 22:57:00,
2013-03-01 18:00:00,28.6,26.0,29.91,West,277,3.7,7.3,90,0.00,,SCT,0.03,VWS V14.00,2013-03-01 23:00:00,
2013-03-01 18:02:00,28.4,25.9,29.91,WNW,283,7.5,7.7,90,0.00,,OVC,0.03,VWS V14.00,2013-03-01 23:02:00,
2013-03-01 18:07:00,28.5,26.0,29.91,WNW,290,2.3,7.7,90,0.00,,OVC,0.03,VWS V14.00,2013-03-01 23:07:00,
2013-03-01 18:12:00,28.4,26.1,29.92,WSW,250,3.9,7.7,91,0.00,,OVC,0.03,VWS V14.00,2013-03-01 23:12:00,
2013-03-01 18:17:00,28.4,26.1,29.92,West,271,3.8,7.7,91,0.00,,OVC,0.03,VWS V14.00,2013-03-01 23:17:00,
2013-03-01 18:22:00,28.3,26.1,29.92,NW,308,2.8,7.7,91,0.00,,OVC,0.03,VWS V14.00,2013-03-01 23:22:00,
2013-03-01 18:27:00,28.4,26.2,29.92,West,260,3.9,5.2,91,0.00,,OVC,0.03,VWS V14.00,2013-03-01 23:27:00,
2013-03-01 18:30:00,28.4,26.2,29.92,West,273,3.9,7.7,91,0.00,,SCT,0.03,VWS V14.00,2013-03-01 23:30:00,
2013-03-01 18:32:00,28.4,26.2,29.92,WNW,288,2.5,5.2,91,0.00,,OVC,0.03,VWS V14.00,2013-03-01 23:32:00,
2013-03-01 18:37:00,28.2,26.0,29.92,West,264,1.6,6.4,92,0.00,,OVC,0.03,VWS V14.00,2013-03-01 23:37:00,
2013-03-01 18:42:00,28.2,26.0,29.92,WNW,294,3.7,6.4,92,0.00,,OVC,0.03,VWS V14.00,2013-03-01 23:42:00,
2013-03-01 18:47:00,28.3,26.0,29.92,West,271,2.2,7.9,91,0.00,,OVC,0.03,VWS V14.00,2013-03-01 23:47:00,
2013-03-01 18:52:00,28.3,26.0,29.92,West,271,6.1,7.9,91,0.00,,OVC,0.03,VWS V14.00,2013-03-01 23:52:00,
2013-03-01 18:57:00,28.2,25.9,29.92,WSW,257,1.6,3.4,91,0.00,,OVC,0.03,VWS V14.00,2013-03-01 23:57:00,
2013-03-01 19:00:00,28.2,25.9,29.92,WSW,252,3.4,7.9,91,0.00,,SCT,0.03,VWS V14.00,2013-03-02 00:00:00,
2013-03-01 19:02:00,28.1,25.8,29.92,WNW,287,5.0,7.4,91,0.00,,OVC,0.03,VWS V14.00,2013-03-02 00:02:00,
2013-03-01 19:07:00,28.0,25.7,29.92,WNW,283,4.9,7.4,91,0.00,,OVC,0.03,VWS V14.00,2013-03-02 00:07:00,
2013-03-01 19:12:00,28.1,25.7,29.92,WNW,285,4.2,7.4,91,0.00,,OVC,0.03,VWS V14.00,2013-03-02 00:12:00,
2013-03-01 19:17:00,27.9,25.5,29.92,West,278,6.0,7.4,91,0.00,,OVC,0.03,VWS V14.00,2013-03-02 00:17:00,
2013-03-01 19:22:00,28.0,25.6,29.92,West,278,2.4,8.1,91,0.00,,OVC,0.03,VWS V14.00,2013-03-02 00:22:00,
2013-03-01 19:27:00,27.9,25.5,29.92,West,280,3.4,4.8,90,0.00,,OVC,0.03,VWS V14.00,2013-03-02 00:27:00,
2013-03-01 19:30:00,28.0,25.6,29.92,WNW,302,3.0,8.1,90,0.00,,SCT,0.03,VWS V14.00,2013-03-02 00:30:00,
2013-03-01 19:32:00,27.9,25.3,29.92,WNW,295,5.3,7.9,90,0.00,,OVC,0.03,VWS V14.00,2013-03-02 00:32:00,
2013-03-01 19:37:00,27.8,25.1,29.92,WNW,291,5.5,7.9,90,0.00,,OVC,0.03,VWS V14.00,2013-03-02 00:37:00,
2013-03-01 19:42:00,27.8,25.0,29.92,WNW,295,4.6,8.6,89,0.00,,OVC,0.03,VWS V14.00,2013-03-02 00:42:00,
2013-03-01 19:47:00,27.8,25.0,29.92,West,270,3.9,9.8,89,0.00,,OVC,0.03,VWS V14.00,2013-03-02 00:47:00,
2013-03-01 19:52:00,27.7,24.8,29.93,NW,323,5.2,9.8,88,0.00,,OVC,0.03,VWS V14.00,2013-03-02 00:52:00,
2013-03-01 19:57:00,27.7,24.8,29.93,WSW,249,3.4,7.2,89,0.00,,OVC,0.03,VWS V14.00,2013-03-02 00:57:00,
2013-03-01 20:00:00,27.7,24.8,29.92,WNW,284,4.6,9.8,88,0.00,,SCT,0.03,VWS V14.00,2013-03-02 01:00:00,
2013-03-01 20:02:00,27.6,24.7,29.93,WNW,295,6.3,8.6,89,0.00,,OVC,0.03,VWS V14.00,2013-03-02 01:02:00,
2013-03-01 20:07:00,27.6,24.7,29.93,WNW,291,2.4,8.6,89,0.00,,OVC,0.03,VWS V14.00,2013-03-02 01:07:00,
2013-03-01 20:12:00,27.3,24.3,29.93,WNW,301,4.4,10.8,88,0.00,,OVC,0.03,VWS V14.00,2013-03-02 01:12:00,
2013-03-01 20:17:00,27.4,24.5,29.93,West,269,2.9,10.8,89,0.00,,OVC,0.03,VWS V14.00,2013-03-02 01:17:00,
2013-03-01 20:22:00,27.2,24.3,29.93,WNW,283,7.3,10.8,89,0.00,,OVC,0.03,VWS V14.00,2013-03-02 01:22:00,
2013-03-01 20:27:00,27.0,24.1,29.93,NW,305,4.0,10.7,88,0.00,,OVC,0.03,VWS V14.00,2013-03-02 01:27:00,
2013-03-01 20:30:00,27.0,24.1,29.93,WNW,290,5.6,10.8,89,0.00,,SCT,0.03,VWS V14.00,2013-03-02 01:30:00,
2013-03-01 20:32:00,27.1,24.2,29.93,West,276,8.6,10.7,89,0.00,,OVC,0.03,VWS V14.00,2013-03-02 01:32:00,
2013-03-01 20:37:00,27.0,24.3,29.93,West,276,6.7,11.7,89,0.00,,OVC,0.03,VWS V14.00,2013-03-02 01:37:00,
2013-03-01 20:42:00,26.9,24.2,29.93,West,277,5.0,11.7,89,0.00,,OVC,0.03,VWS V14.00,2013-03-02 01:42:00,
2013-03-01 20:47:00,26.8,24.1,29.93,WNW,300,2.7,11.7,89,0.00,,OVC,0.03,VWS V14.00,2013-03-02 01:47:00,
2013-03-01 20:52:00,26.9,24.0,29.93,NW,314,3.1,11.7,89,0.00,,OVC,0.03,VWS V14.00,2013-03-02 01:52:00,
2013-03-01 20:57:00,26.7,23.8,29.93,WNW,300,5.0,7.0,89,0.00,,OVC,0.03,VWS V14.00,2013-03-02 01:57:00,
2013-03-01 21:00:00,26.9,24.1,29.93,WNW,295,3.0,11.7,89,0.00,,SCT,0.03,VWS V14.00,2013-03-02 02:00:00,
2013-03-01 21:02:00,26.7,23.6,29.93,NW,312,3.5,7.1,88,0.00,,OVC,0.03,VWS V14.00,2013-03-02 02:02:00,
2013-03-01 21:07:00,26.9,23.9,29.93,WNW,285,2.3,8.1,88,0.00,,OVC,0.03,VWS V14.00,2013-03-02 02:07:00,
2013-03-01 21:12:00,26.8,23.8,29.93,WNW,288,5.8,11.1,88,0.00,,OVC,0.03,VWS V14.00,2013-03-02 02:12:00,
2013-03-01 21:18:00,26.7,23.6,29.93,NW,304,6.6,11.8,88,0.00,,OVC,0.03,VWS V14.00,2013-03-02 02:18:00,
2013-03-01 21:23:00,26.7,23.5,29.93,West,274,7.4,11.8,88,0.00,,OVC,0.03,VWS V14.00,2013-03-02 02:23:00,
2013-03-01 21:28:00,26.8,23.7,29.93,West,271,3.5,5.7,88,0.00,,OVC,0.03,VWS V14.00,2013-03-02 02:28:00,
2013-03-01 21:30:00,26.7,23.5,29.93,NW,304,3.9,11.8,88,0.00,,SCT,0.03,VWS V14.00,2013-03-02 02:30:00,
2013-03-01 21:33:00,26.8,23.7,29.93,WNW,285,4.4,8.4,88,0.00,,OVC,0.03,VWS V14.00,2013-03-02 02:33:00,
2013-03-01 21:38:00,26.8,23.7,29.93,West,267,4.6,8.4,88,0.00,,OVC,0.03,VWS V14.00,2013-03-02 02:38:00,
2013-03-01 21:43:00,26.6,23.5,29.93,WNW,284,6.2,8.4,88,0.00,,OVC,0.03,VWS V14.00,2013-03-02 02:43:00,
2013-03-01 21:48:00,26.6,23.5,29.93,West,278,6.8,9.9,88,0.00,,OVC,0.03,VWS V14.00,2013-03-02 02:48:00,
2013-03-01 21:53:00,26.5,23.5,29.93,WNW,285,5.2,9.9,88,0.00,,OVC,0.03,VWS V14.00,2013-03-02 02:53:00,
2013-03-01 21:58:00,26.5,23.5,29.93,WNW,284,8.9,10.3,88,0.00,,OVC,0.03,VWS V14.00,2013-03-02 02:58:00,
2013-03-01 22:00:00,26.6,23.5,29.93,WNW,291,7.5,9.9,88,0.00,,SCT,0.03,VWS V14.00,2013-03-02 03:00:00,
2013-03-01 22:03:00,26.5,23.6,29.93,WNW,288,3.9,10.3,89,0.00,,OVC,0.03,VWS V14.00,2013-03-02 03:03:00,
2013-03-01 22:08:00,26.4,23.7,29.93,WNW,283,3.8,10.3,89,0.00,,OVC,0.03,VWS V14.00,2013-03-02 03:08:00,
2013-03-01 22:13:00,26.3,23.7,29.93,West,277,5.0,10.3,90,0.00,,OVC,0.03,VWS V14.00,2013-03-02 03:13:00,
2013-03-01 22:18:00,26.4,23.8,29.93,WNW,292,6.3,10.3,90,0.00,,OVC,0.03,VWS V14.00,2013-03-02 03:18:00,
2013-03-01 22:23:00,26.2,23.7,29.93,West,271,3.9,10.3,90,0.00,,OVC,0.03,VWS V14.00,2013-03-02 03:23:00,
2013-03-01 22:28:00,26.0,23.6,29.93,WNW,300,3.3,7.6,90,0.00,,OVC,0.03,VWS V14.00,2013-03-02 03:28:00,
2013-03-01 22:30:00,26.1,23.6,29.93,WNW,295,2.9,10.3,90,0.00,,SCT,0.03,VWS V14.00,2013-03-02 03:30:00,
2013-03-01 22:33:00,26.1,23.8,29.93,West,274,4.2,8.8,91,0.00,,OVC,0.03,VWS V14.00,2013-03-02 03:33:00,
2013-03-01 22:38:00,26.0,23.7,29.93,WNW,297,4.7,8.8,91,0.00,,OVC,0.03,VWS V14.00,2013-03-02 03:38:00,
2013-03-01 22:43:00,25.9,23.6,29.93,West,280,4.7,8.8,91,0.00,,OVC,0.03,VWS V14.00,2013-03-02 03:43:00,
2013-03-01 22:48:00,25.9,23.7,29.93,WNW,285,4.3,8.8,91,0.00,,OVC,0.03,VWS V14.00,2013-03-02 03:48:00,
2013-03-01 22:53:00,25.9,23.7,29.93,NW,308,2.8,8.8,91,0.00,,OVC,0.03,VWS V14.00,2013-03-02 03:53:00,
2013-03-01 22:58:00,25.8,23.6,29.93,NW,315,5.2,5.3,91,0.00,,OVC,0.03,VWS V14.00,2013-03-02 03:58:00,
2013-03-01 23:00:00,25.8,23.6,29.93,West,259,1.7,8.8,91,0.00,,SCT,0.03,VWS V14.00,2013-03-02 04:00:00,
2013-03-01 23:03:00,25.8,23.6,29.93,WSW,243,2.1,7.1,91,0.00,,OVC,0.03,VWS V14.00,2013-03-02 04:03:00,
2013-03-01 23:08:00,25.7,23.6,29.93,WNW,298,4.0,7.1,92,0.00,,OVC,0.03,VWS V14.00,2013-03-02 04:08:00,
2013-03-01 23:13:00,25.5,23.4,29.93,WNW,290,2.9,7.1,91,0.00,,OVC,0.03,VWS V14.00,2013-03-02 04:13:00,
2013-03-01 23:18:00,25.7,23.5,29.93,WNW,285,2.7,7.2,91,0.00,,OVC,0.03,VWS V14.00,2013-03-02 04:18:00,
2013-03-01 23:23:00,25.5,23.3,29.93,WNW,297,3.4,7.2,91,0.00,,OVC,0.03,VWS V14.00,2013-03-02 04:23:00,
2013-03-01 23:28:00,25.4,23.1,29.93,WNW,287,5.5,8.6,91,0.00,,OVC,0.03,VWS V14.00,2013-03-02 04:28:00,
2013-03-01 23:30:00,25.6,23.4,29.93,WSW,255,6.8,7.2,91,0.00,,SCT,0.03,VWS V14.00,2013-03-02 04:30:00,
2013-03-01 23:33:00,25.3,23.0,29.93,WNW,300,4.6,8.6,91,0.00,,OVC,0.03,VWS V14.00,2013-03-02 04:33:00,
2013-03-01 23:38:00,25.4,23.1,29.93,West,276,1.7,8.6,91,0.00,,OVC,0.03,VWS V14.00,2013-03-02 04:38:00,
2013-03-01 23:43:00,25.4,23.0,29.94,WNW,290,4.5,8.6,91,0.00,,OVC,0.03,VWS V14.00,2013-03-02 04:43:00,
2013-03-01 23:48:00,25.2,22.8,29.93,NW,304,1.9,8.6,90,0.00,,OVC,0.03,VWS V14.00,2013-03-02 04:48:00,
2013-03-01 23:53:00,25.2,22.8,29.94,West,281,6.5,9.1,90,0.00,,OVC,0.03,VWS V14.00,2013-03-02 04:53:00,